Time;durP1;ratioP1;P1;durP2;ratioP2;P2;SDS_P1;SDS_P2;PMS_P1;PMS_P2;Temp;Humidity;BMP_temperature;BMP_pressure;BME280_temperature;BME280_humidity;BME280_pressure;Samples;Min_cycle;Max_cycle;Signal;HPM_P1;HPM_P2
2022/03/01 00:01:53;;;;;;;10.23;5.70;;;-0.90;67.40;;;;;;5023167;28;20034;-82
2022/03/01 00:04:19;;;;;;;15.55;6.28;;;-0.90;67.50;;;;;;5022294;28;20034;-81
2022/03/01 00:06:45;;;;;;;13.85;6.68;;;-0.90;67.60;;;;;;5022855;28;20030;-81
2022/03/01 00:09:11;;;;;;;14.27;6.68;;;-1.00;67.40;;;;;;5022182;28;20030;-81
2022/03/01 00:11:38;;;;;;;14.57;6.28;;;-1.00;67.50;;;;;;5023234;28;20463;-81
2022/03/01 00:14:05;;;;;;;14.00;6.90;;;-1.00;67.50;;;;;;5022590;28;20014;-83
2022/03/01 00:16:31;;;;;;;12.30;6.55;;;-1.00;67.60;;;;;;5022690;28;20080;-83
2022/03/01 00:18:58;;;;;;;12.20;5.60;;;-1.00;67.70;;;;;;5004304;28;20073;-81
2022/03/01 00:21:24;;;;;;;9.88;6.25;;;-1.00;67.80;;;;;;5022303;28;20022;-81
2022/03/01 00:23:50;;;;;;;13.38;6.50;;;-1.00;67.90;;;;;;5022695;28;20049;-81
2022/03/01 00:26:16;;;;;;;14.25;6.68;;;-1.00;68.00;;;;;;5020583;28;20026;-82
2022/03/01 00:28:43;;;;;;;19.48;7.07;;;-1.00;68.00;;;;;;5020190;28;20061;-81
2022/03/01 00:31:09;;;;;;;16.92;6.93;;;-1.00;67.70;;;;;;5018381;28;20078;-82
2022/03/01 00:33:34;;;;;;;13.68;6.97;;;-1.00;67.60;;;;;;5020579;28;20025;-81
2022/03/01 00:36:00;;;;;;;12.85;6.18;;;-1.10;67.40;;;;;;5029994;28;20029;-79
2022/03/01 00:38:26;;;;;;;15.63;6.57;;;-1.10;67.40;;;;;;5034409;28;20033;-81
2022/03/01 00:40:52;;;;;;;14.48;6.13;;;-1.10;67.50;;;;;;5026875;28;20025;-82
2022/03/01 00:43:18;;;;;;;11.45;5.35;;;-1.10;67.60;;;;;;5010610;28;20083;-81
2022/03/01 00:45:44;;;;;;;10.85;6.03;;;-1.20;67.70;;;;;;5024932;28;20021;-81
2022/03/01 00:48:10;;;;;;;10.15;5.40;;;-1.20;67.80;;;;;;5024181;28;20076;-82
2022/03/01 00:50:35;;;;;;;10.23;5.20;;;-1.20;67.90;;;;;;5023710;28;20029;-82
2022/03/01 00:53:01;;;;;;;13.63;5.57;;;-1.20;68.00;;;;;;5022879;28;20030;-83
2022/03/01 00:55:27;;;;;;;7.97;4.82;;;-1.20;68.10;;;;;;5023298;28;20022;-81
2022/03/01 00:57:53;;;;;;;10.40;4.53;;;-1.20;68.20;;;;;;5022729;28;20077;-81
2022/03/01 01:00:19;;;;;;;10.15;5.03;;;-1.20;68.20;;;;;;5022531;28;20025;-81
2022/03/01 01:02:45;;;;;;;12.38;5.90;;;-1.20;68.40;;;;;;5023406;28;20058;-82
2022/03/01 01:05:11;;;;;;;13.52;5.75;;;-1.20;68.40;;;;;;5023162;28;20094;-81
2022/03/01 01:07:36;;;;;;;12.05;6.38;;;-1.20;69.00;;;;;;5019153;28;20022;-79
2022/03/01 01:10:04;;;;;;;12.40;6.03;;;-1.20;68.40;;;;;;5016214;28;20026;-79
2022/03/01 01:12:30;;;;;;;11.75;5.72;;;-1.30;68.50;;;;;;5016943;28;20026;-79
2022/03/01 01:14:56;;;;;;;12.30;5.78;;;-1.30;68.70;;;;;;5019078;28;20041;-79
2022/03/01 01:17:21;;;;;;;14.98;6.22;;;-1.30;68.60;;;;;;5021227;28;20053;-79
2022/03/01 01:19:47;;;;;;;13.10;6.13;;;-1.30;68.30;;;;;;5022277;28;20459;-79
2022/03/01 01:24:57;;;;;;;14.68;6.10;;;-1.40;68.40;;;;;;5023751;28;20089;-79
2022/03/01 01:27:23;;;;;;;12.27;5.95;;;-1.50;68.60;;;;;;5023463;28;20466;-80
2022/03/01 01:29:49;;;;;;;11.32;6.10;;;-1.60;68.80;;;;;;5024863;28;20101;-79
2022/03/01 01:32:15;;;;;;;13.13;5.70;;;-1.60;69.00;;;;;;5031772;28;20109;-80
2022/03/01 01:34:40;;;;;;;13.35;6.32;;;-1.60;69.20;;;;;;5019069;28;20066;-79
2022/03/01 01:37:06;;;;;;;13.55;5.88;;;-1.70;69.20;;;;;;5020277;28;20018;-80
2022/03/01 01:39:32;;;;;;;10.70;5.78;;;-1.70;69.40;;;;;;5021359;28;20034;-79
2022/03/01 01:41:58;;;;;;;11.15;6.30;;;-1.70;69.50;;;;;;5017805;28;20026;-80
2022/03/01 01:44:23;;;;;;;13.27;6.15;;;-1.70;69.60;;;;;;5018159;28;20057;-79
2022/03/01 01:46:49;;;;;;;10.95;5.95;;;-1.70;69.70;;;;;;5018488;28;20432;-80
2022/03/01 01:49:15;;;;;;;13.07;5.95;;;-1.70;69.60;;;;;;5016815;28;20033;-80
2022/03/01 01:51:41;;;;;;;13.20;6.55;;;-1.70;69.60;;;;;;5022749;28;20018;-80
2022/03/01 01:54:06;;;;;;;12.60;6.40;;;-1.70;69.70;;;;;;5021325;28;20092;-80
2022/03/01 01:56:33;;;;;;;15.57;6.78;;;-1.70;69.80;;;;;;5002290;28;20030;-80
2022/03/01 01:58:58;;;;;;;18.13;7.30;;;-1.80;69.70;;;;;;5019324;28;20034;-80
2022/03/01 02:01:24;;;;;;;13.80;6.70;;;-1.80;69.50;;;;;;5019562;28;20504;-79
2022/03/01 02:03:50;;;;;;;15.00;7.10;;;-1.80;69.60;;;;;;5030411;28;20021;-80
2022/03/01 02:06:16;;;;;;;14.73;6.95;;;-1.80;69.70;;;;;;5031734;28;20034;-79
2022/03/01 02:08:41;;;;;;;12.35;6.20;;;-1.90;69.60;;;;;;5014839;28;20034;-79
2022/03/01 02:11:10;;;;;;;16.42;7.40;;;-1.90;69.80;;;;;;5017396;28;20032;-80
2022/03/01 02:13:39;;;;;;;17.88;7.45;;;-1.90;70.00;;;;;;5018691;28;20029;-79
2022/03/01 02:16:05;;;;;;;14.38;6.13;;;-2.00;70.00;;;;;;5019014;28;20034;-79
2022/03/01 02:18:30;;;;;;;16.75;7.55;;;-2.00;70.30;;;;;;5016974;28;20410;-80
2022/03/01 02:20:56;;;;;;;12.80;5.63;;;-2.00;70.40;;;;;;5017769;28;20447;-80
2022/03/01 02:23:22;;;;;;;14.20;6.43;;;-2.10;70.60;;;;;;5019135;28;20034;-80
2022/03/01 02:25:48;;;;;;;13.25;6.78;;;-2.10;70.70;;;;;;5017774;28;20033;-79
2022/03/01 02:28:13;;;;;;;16.17;7.80;;;-2.10;70.80;;;;;;5019332;28;20022;-80
2022/03/01 02:30:39;;;;;;;12.70;6.18;;;-2.10;71.00;;;;;;5019905;28;20171;-80
2022/03/01 02:33:05;;;;;;;15.45;6.80;;;-2.10;71.00;;;;;;5018819;28;20022;-79
2022/03/01 02:35:30;;;;;;;15.82;6.78;;;-2.20;71.10;;;;;;5019181;28;20402;-80
2022/03/01 02:37:56;;;;;;;16.80;6.85;;;-2.20;71.20;;;;;;5018873;28;20026;-80
2022/03/01 02:40:22;;;;;;;14.45;6.70;;;-2.20;71.30;;;;;;5019786;28;20057;-80
2022/03/01 02:42:48;;;;;;;15.10;6.50;;;-2.20;71.50;;;;;;5019623;28;20042;-80
2022/03/01 02:45:17;;;;;;;14.75;7.00;;;-2.20;71.70;;;;;;5020150;28;20033;-79
2022/03/01 02:47:43;;;;;;;13.32;6.50;;;-2.30;71.60;;;;;;5017846;28;20471;-80
2022/03/01 02:50:11;;;;;;;14.15;6.32;;;-2.30;71.80;;;;;;5018440;28;20467;-80
2022/03/01 02:52:37;;;;;;;12.73;6.03;;;-2.30;72.20;;;;;;5003794;28;20017;-80
2022/03/01 02:55:04;;;;;;;13.90;5.35;;;-2.30;72.50;;;;;;5020077;28;20029;-79
2022/03/01 02:57:30;;;;;;;13.82;6.18;;;-2.30;72.50;;;;;;5018831;28;20030;-80
2022/03/01 02:59:56;;;;;;;12.43;6.57;;;-2.30;72.40;;;;;;5019153;28;20513;-80
2022/03/01 03:02:21;;;;;;;17.35;6.78;;;-2.40;72.40;;;;;;5018401;28;20040;-80
2022/03/01 03:04:47;;;;;;;14.05;6.78;;;-2.40;72.50;;;;;;5017913;28;20454;-80
2022/03/01 03:07:14;;;;;;;13.68;6.53;;;-2.40;72.60;;;;;;5019401;28;20068;-79
2022/03/01 03:09:40;;;;;;;11.02;6.10;;;-2.40;72.70;;;;;;5030939;28;20026;-81
2022/03/01 03:12:06;;;;;;;12.85;5.97;;;-2.40;72.80;;;;;;5034503;28;20097;-80
2022/03/01 03:14:32;;;;;;;11.82;5.53;;;-2.40;73.00;;;;;;5017016;28;20026;-80
2022/03/01 03:16:58;;;;;;;14.32;5.82;;;-2.50;73.10;;;;;;4999089;28;20498;-80
2022/03/01 03:19:24;;;;;;;12.32;5.63;;;-2.50;73.30;;;;;;5016837;28;20030;-80
2022/03/01 03:21:50;;;;;;;13.32;6.68;;;-2.50;73.50;;;;;;5017004;28;20053;-80
2022/03/01 03:24:17;;;;;;;14.43;6.93;;;-2.50;73.50;;;;;;5016703;28;20033;-80
2022/03/01 03:26:44;;;;;;;14.02;6.20;;;-2.40;73.60;;;;;;5017988;28;20471;-80
2022/03/01 03:29:11;;;;;;;13.35;5.95;;;-2.40;73.60;;;;;;5024202;28;20037;-79
2022/03/01 03:31:38;;;;;;;10.90;4.78;;;-2.50;73.60;;;;;;5036833;28;20010;-79
2022/03/01 03:34:08;;;;;;;11.15;6.20;;;-2.50;73.80;;;;;;5035814;28;20025;-80
2022/03/01 03:36:34;;;;;;;10.05;5.75;;;-2.50;73.90;;;;;;5035980;28;20482;-78
2022/03/01 03:39:01;;;;;;;12.02;5.88;;;-2.50;74.10;;;;;;5035988;28;20105;-81
2022/03/01 03:41:27;;;;;;;12.13;6.43;;;-2.50;74.10;;;;;;5035830;28;20030;-80
2022/03/01 03:43:53;;;;;;;17.23;7.65;;;-2.50;74.10;;;;;;5024076;28;20026;-80
2022/03/01 03:46:20;;;;;;;15.75;6.90;;;-2.50;74.20;;;;;;5019263;28;20084;-81
2022/03/01 03:48:47;;;;;;;14.63;6.75;;;-2.60;74.30;;;;;;5018140;28;20056;-79
2022/03/01 03:51:13;;;;;;;12.73;6.00;;;-2.50;74.40;;;;;;5017086;28;20064;-79
2022/03/01 03:53:39;;;;;;;11.10;5.32;;;-2.50;74.40;;;;;;5017433;28;20204;-79
2022/03/01 03:56:04;;;;;;;12.30;5.85;;;-2.60;74.70;;;;;;5018757;28;20052;-80
2022/03/01 03:58:31;;;;;;;13.73;6.28;;;-2.60;74.90;;;;;;5016747;28;20026;-79
2022/03/01 04:00:56;;;;;;;12.55;6.78;;;-2.60;74.80;;;;;;5017176;28;20026;-80
2022/03/01 04:03:23;;;;;;;10.68;5.78;;;-2.60;75.00;;;;;;5018632;28;20030;-80
2022/03/01 04:05:50;;;;;;;13.20;5.53;;;-2.70;75.10;;;;;;5018587;28;20054;-82
2022/03/01 04:08:16;;;;;;;11.43;5.82;;;-2.70;75.40;;;;;;5018898;28;20030;-81
2022/03/01 04:10:43;;;;;;;15.25;7.05;;;-2.70;75.60;;;;;;5018855;28;20068;-82
2022/03/01 04:13:09;;;;;;;15.45;6.68;;;-2.70;75.50;;;;;;5017071;28;20120;-82
2022/03/01 04:15:35;;;;;;;15.90;6.65;;;-2.80;75.60;;;;;;5019057;28;20477;-82
2022/03/01 04:18:01;;;;;;;13.57;6.85;;;-2.80;75.80;;;;;;5019312;28;20479;-82
2022/03/01 04:20:27;;;;;;;12.63;6.28;;;-2.90;76.60;;;;;;5024722;28;20022;-82
2022/03/01 04:22:53;;;;;;;13.88;6.35;;;-2.90;76.20;;;;;;5015151;28;20483;-82
2022/03/01 04:25:19;;;;;;;16.73;7.03;;;-2.90;76.40;;;;;;5029575;28;20018;-81
2022/03/01 04:27:44;;;;;;;15.18;6.78;;;-2.90;76.60;;;;;;5033677;28;20038;-81
2022/03/01 04:30:11;;;;;;;11.80;6.63;;;-2.90;76.80;;;;;;5034616;28;20022;-81
2022/03/01 04:32:38;;;;;;;14.80;7.55;;;-2.90;76.50;;;;;;5034112;28;20022;-81
2022/03/01 04:35:05;;;;;;;16.25;6.63;;;-3.00;76.50;;;;;;5017554;28;20022;-81
2022/03/01 04:37:31;;;;;;;18.70;6.72;;;-2.90;76.70;;;;;;5000736;28;20026;-80
2022/03/01 04:39:57;;;;;;;16.33;8.65;;;-3.00;76.60;;;;;;4982487;28;20030;-81
2022/03/01 04:42:23;;;;;;;11.43;5.78;;;-2.90;76.70;;;;;;4999213;28;20046;-82
2022/03/01 04:44:49;;;;;;;11.02;5.30;;;-3.00;77.20;;;;;;4999995;28;20179;-82
2022/03/01 04:47:15;;;;;;;12.07;5.47;;;-3.00;76.70;;;;;;5002580;28;20057;-82
2022/03/01 04:49:41;;;;;;;14.95;6.50;;;-3.10;76.80;;;;;;5009445;28;20057;-82
2022/03/01 04:52:07;;;;;;;14.43;6.25;;;-3.10;77.20;;;;;;5023087;28;20097;-80
2022/03/01 04:54:33;;;;;;;14.35;6.18;;;-3.00;77.30;;;;;;5010867;28;20056;-81
2022/03/01 04:56:59;;;;;;;12.45;5.88;;;-3.00;77.40;;;;;;5039773;28;20081;-79
2022/03/01 04:59:25;;;;;;;11.95;5.72;;;-3.00;77.60;;;;;;5037189;28;20034;-81
2022/03/01 05:01:51;;;;;;;13.27;5.20;;;-3.00;77.60;;;;;;5029972;28;20089;-80
2022/03/01 05:04:16;;;;;;;15.73;7.35;;;-2.90;77.50;;;;;;5031563;28;20094;-79
2022/03/01 05:06:42;;;;;;;11.20;5.18;;;-3.00;76.90;;;;;;5036723;28;20026;-80
2022/03/01 05:09:08;;;;;;;15.75;6.38;;;-3.00;76.80;;;;;;5033954;28;20026;-82
2022/03/01 05:11:35;;;;;;;13.10;5.93;;;-3.10;76.90;;;;;;5009402;28;20391;-79
2022/03/01 05:14:01;;;;;;;14.80;6.18;;;-3.10;77.10;;;;;;5024259;28;20037;-79
2022/03/01 05:16:27;;;;;;;13.68;6.50;;;-3.20;77.10;;;;;;5026160;28;20030;-80
2022/03/01 05:18:53;;;;;;;11.63;5.90;;;-3.20;77.40;;;;;;4997436;28;20036;-80
2022/03/01 05:21:18;;;;;;;14.65;6.65;;;-3.20;77.50;;;;;;5010512;28;20030;-79
2022/03/01 05:23:44;;;;;;;14.38;5.95;;;-3.30;77.60;;;;;;5022105;28;20026;-81
2022/03/01 05:26:10;;;;;;;12.68;5.95;;;-3.30;77.80;;;;;;5005862;28;20427;-82
2022/03/01 05:28:35;;;;;;;11.98;5.85;;;-3.30;78.00;;;;;;5004635;28;20081;-82
2022/03/01 05:31:01;;;;;;;11.88;5.85;;;-3.30;78.10;;;;;;5006559;28;20034;-82
2022/03/01 05:33:27;;;;;;;11.15;5.72;;;-3.30;78.20;;;;;;5006862;28;20414;-83
2022/03/01 05:35:53;;;;;;;11.82;5.60;;;-3.30;78.20;;;;;;4987167;28;20034;-82
2022/03/01 05:38:19;;;;;;;10.35;5.57;;;-3.30;78.30;;;;;;4985935;28;20030;-82
2022/03/01 05:40:45;;;;;;;12.15;5.93;;;-3.40;78.40;;;;;;5003588;28;20026;-81
2022/03/01 05:43:11;;;;;;;12.00;5.43;;;-3.40;78.60;;;;;;5002570;28;20435;-81
2022/03/01 05:45:38;;;;;;;9.15;5.22;;;-3.40;78.60;;;;;;5001564;28;20022;-82
2022/03/01 05:48:03;;;;;;;11.82;6.07;;;-3.30;78.70;;;;;;5003118;28;20033;-82
2022/03/01 05:50:29;;;;;;;17.23;6.45;;;-3.30;78.50;;;;;;5003046;28;20030;-82
2022/03/01 05:52:55;;;;;;;14.57;5.47;;;-3.40;78.30;;;;;;5004862;28;20030;-82
2022/03/01 05:55:21;;;;;;;12.13;5.25;;;-3.40;78.30;;;;;;5022987;28;20037;-83
2022/03/01 05:57:47;;;;;;;11.05;6.03;;;-3.40;78.30;;;;;;5022255;28;20025;-82
2022/03/01 06:00:16;;;;;;;10.55;5.25;;;-3.40;78.50;;;;;;5020971;28;20025;-82
2022/03/01 06:02:43;;;;;;;12.73;5.50;;;-3.40;78.70;;;;;;5021685;28;20047;-83
2022/03/01 06:05:11;;;;;;;12.10;5.47;;;-3.40;78.80;;;;;;5021062;28;20026;-81
2022/03/01 06:07:37;;;;;;;11.70;5.35;;;-3.40;78.80;;;;;;5022911;28;20026;-83
2022/03/01 06:10:04;;;;;;;12.63;5.47;;;-3.40;78.80;;;;;;5022101;28;20033;-83
2022/03/01 06:12:30;;;;;;;12.88;5.47;;;-3.40;78.80;;;;;;5021921;28;20125;-82
2022/03/01 06:14:56;;;;;;;15.15;5.95;;;-3.40;79.00;;;;;;5023533;28;20029;-83
2022/03/01 06:17:22;;;;;;;11.43;4.57;;;-3.30;79.00;;;;;;5025584;28;20026;-84
2022/03/01 06:19:47;;;;;;;11.00;4.70;;;-3.30;79.00;;;;;;5027488;28;20044;-83
2022/03/01 06:22:13;;;;;;;9.23;4.38;;;-3.20;78.90;;;;;;5032147;28;20010;-84
2022/03/01 06:24:41;;;;;;;8.50;4.32;;;-3.20;78.70;;;;;;5036632;28;20042;-83
2022/03/01 06:27:07;;;;;;;11.18;4.97;;;-3.10;78.70;;;;;;5026919;28;20064;-83
2022/03/01 06:29:34;;;;;;;12.88;5.10;;;-3.10;78.60;;;;;;5020883;28;20030;-82
2022/03/01 06:32:00;;;;;;;11.63;4.88;;;-2.90;78.20;;;;;;5023017;28;20030;-82
2022/03/01 06:34:26;;;;;;;11.85;5.10;;;-2.90;77.60;;;;;;5023570;28;20099;-83
2022/03/01 06:36:51;;;;;;;15.18;5.35;;;-2.80;77.20;;;;;;5024954;28;20083;-83
2022/03/01 06:39:17;;;;;;;12.13;4.90;;;-2.70;76.50;;;;;;5031903;28;20057;-82
2022/03/01 06:41:43;;;;;;;9.13;3.72;;;-2.70;76.20;;;;;;5021239;28;20455;-82
2022/03/01 06:44:09;;;;;;;13.52;5.07;;;-2.70;76.20;;;;;;5022525;28;20050;-82
2022/03/01 06:46:35;;;;;;;9.63;4.88;;;-2.60;76.20;;;;;;5024960;28;20049;-83
2022/03/01 06:49:01;;;;;;;10.20;5.18;;;-2.60;75.90;;;;;;5016242;28;20037;-82
2022/03/01 06:51:27;;;;;;;7.25;3.80;;;-2.50;75.80;;;;;;5015156;28;20077;-83
2022/03/01 06:53:54;;;;;;;8.20;4.28;;;-2.40;75.70;;;;;;5019762;28;20022;-83
2022/03/01 06:56:19;;;;;;;11.52;4.88;;;-2.40;75.40;;;;;;5018871;28;20026;-83
2022/03/01 06:58:45;;;;;;;8.70;4.20;;;-2.30;75.20;;;;;;5020733;28;20026;-81
2022/03/01 07:01:11;;;;;;;10.35;4.80;;;-2.30;74.20;;;;;;5002530;28;20030;-83
2022/03/01 07:03:39;;;;;;;11.48;5.68;;;-2.30;73.90;;;;;;5020077;28;20033;-84
2022/03/01 07:06:05;;;;;;;14.20;5.93;;;-2.30;73.60;;;;;;5021072;28;20124;-83
2022/03/01 07:08:31;;;;;;;11.88;4.90;;;-2.30;73.40;;;;;;5022298;28;20033;-83
2022/03/01 07:10:58;;;;;;;10.45;4.53;;;-2.20;73.60;;;;;;5021075;28;20030;-83
2022/03/01 07:13:23;;;;;;;11.27;4.90;;;-2.10;73.40;;;;;;5019142;28;20032;-83
2022/03/01 07:15:49;;;;;;;10.38;4.78;;;-2.00;73.20;;;;;;5021137;28;20026;-83
2022/03/01 07:18:15;;;;;;;9.80;4.57;;;-2.00;72.50;;;;;;5021526;28;20034;-84
2022/03/01 07:20:44;;;;;;;8.70;4.38;;;-2.00;72.40;;;;;;5022885;28;20073;-82
2022/03/01 07:23:11;;;;;;;14.40;5.72;;;-1.90;72.60;;;;;;5004469;28;20033;-84
2022/03/01 07:25:37;;;;;;;10.32;4.82;;;-1.80;72.00;;;;;;5020579;28;20030;-84
2022/03/01 07:28:03;;;;;;;9.93;4.88;;;-1.70;72.00;;;;;;5021624;28;20021;-83
2022/03/01 07:30:29;;;;;;;8.90;4.43;;;-1.50;71.80;;;;;;5020711;28;20014;-83
2022/03/01 07:33:01;;;;;;;8.00;4.30;;;-1.40;71.30;;;;;;5022875;28;20247;-84
2022/03/01 07:35:27;;;;;;;8.70;5.00;;;-1.30;70.70;;;;;;5028355;28;20032;-83
2022/03/01 07:37:53;;;;;;;9.95;4.93;;;-1.10;69.90;;;;;;5027123;28;20029;-84
2022/03/01 07:40:20;;;;;;;7.50;4.22;;;-1.10;69.00;;;;;;5021579;28;20037;-83
2022/03/01 07:42:46;;;;;;;11.07;4.95;;;-1.10;68.80;;;;;;5005727;28;20057;-82
2022/03/01 07:45:13;;;;;;;9.75;5.00;;;-1.00;68.30;;;;;;5022752;28;20033;-82
2022/03/01 07:47:39;;;;;;;10.25;5.00;;;-0.90;67.80;;;;;;5004119;28;20037;-82
2022/03/01 07:50:06;;;;;;;9.80;4.72;;;-0.80;67.70;;;;;;5023783;28;20065;-84
2022/03/01 07:52:32;;;;;;;9.13;4.80;;;-0.60;67.70;;;;;;4986265;28;20026;-83
2022/03/01 07:54:58;;;;;;;10.95;4.82;;;-0.40;67.60;;;;;;5023280;28;20083;-82
2022/03/01 07:57:23;;;;;;;14.80;5.47;;;-0.20;67.20;;;;;;5031458;28;20018;-84
2022/03/01 07:59:49;;;;;;;13.07;5.30;;;-0.10;66.30;;;;;;5033739;28;20072;-84
2022/03/01 08:02:15;;;;;;;11.18;5.10;;;0.10;65.80;;;;;;5024977;28;20026;-83
2022/03/01 08:04:42;;;;;;;10.00;4.97;;;0.30;65.40;;;;;;5023615;28;20054;-81
2022/03/01 08:07:14;;;;;;;12.10;5.18;;;0.40;64.50;;;;;;5029823;28;20018;-78
2022/03/01 08:09:40;;;;;;;10.48;4.22;;;0.60;64.40;;;;;;5028037;28;20072;-82
2022/03/01 08:12:07;;;;;;;10.68;5.03;;;0.80;64.10;;;;;;5035373;28;20056;-82
2022/03/01 08:14:34;;;;;;;8.73;5.13;;;1.00;63.70;;;;;;5010860;28;20022;-83
2022/03/01 08:17:01;;;;;;;11.07;5.13;;;1.20;62.90;;;;;;5022329;28;20029;-83
2022/03/01 08:19:26;;;;;;;8.57;4.90;;;1.40;63.10;;;;;;5004880;28;20026;-85
2022/03/01 08:21:52;;;;;;;9.73;4.50;;;1.60;61.80;;;;;;5014263;28;20041;-84
2022/03/01 08:24:18;;;;;;;9.48;4.22;;;1.90;61.10;;;;;;5021968;28;20092;-84
2022/03/01 08:26:49;;;;;;;7.82;4.45;;;2.00;60.50;;;;;;5023945;28;20082;-81
2022/03/01 08:29:15;;;;;;;11.20;4.93;;;2.20;59.70;;;;;;5026675;28;20048;-83
2022/03/01 08:31:41;;;;;;;8.13;4.50;;;2.40;59.10;;;;;;5015089;28;20026;-83
2022/03/01 08:34:08;;;;;;;8.75;4.95;;;2.50;58.10;;;;;;5034393;28;20033;-83
2022/03/01 08:36:34;;;;;;;11.43;6.07;;;2.50;57.50;;;;;;5036506;28;20045;-83
2022/03/01 08:39:00;;;;;;;10.50;5.22;;;2.50;55.90;;;;;;5035958;28;20030;-85
2022/03/01 08:41:26;;;;;;;11.50;5.13;;;2.40;56.10;;;;;;5035993;28;20030;-88
2022/03/01 08:43:51;;;;;;;8.80;4.53;;;2.40;56.70;;;;;;5028573;28;20026;-83
2022/03/01 08:46:17;;;;;;;9.13;5.03;;;2.60;56.80;;;;;;5006342;28;20022;-83
2022/03/01 08:48:44;;;;;;;11.50;5.43;;;2.70;56.70;;;;;;5023656;28;20018;-84
2022/03/01 08:51:11;;;;;;;8.00;4.80;;;2.90;56.20;;;;;;5020802;28;20030;-86
2022/03/01 08:53:37;;;;;;;10.85;5.40;;;3.10;54.20;;;;;;4980439;28;20090;-83
2022/03/01 08:56:04;;;;;;;10.52;5.75;;;3.10;54.20;;;;;;4979360;28;20023;-84
2022/03/01 08:58:29;;;;;;;9.70;5.00;;;3.20;54.00;;;;;;4978597;28;20047;-83
2022/03/01 09:00:55;;;;;;;12.35;5.55;;;3.20;54.40;;;;;;4980228;28;20038;-84
2022/03/01 09:03:23;;;;;;;11.85;5.30;;;3.30;54.70;;;;;;4979793;28;20519;-83
2022/03/01 09:05:49;;;;;;;11.50;5.18;;;3.50;53.50;;;;;;4976834;28;20058;-85
2022/03/01 09:08:15;;;;;;;13.27;5.03;;;3.60;53.30;;;;;;4980021;28;20081;-82
2022/03/01 09:10:41;;;;;;;9.60;4.55;;;3.70;53.40;;;;;;4981355;28;20031;-80
2022/03/01 09:13:07;;;;;;;12.10;5.07;;;3.80;53.80;;;;;;4982856;28;20435;-83
2022/03/01 09:15:33;;;;;;;6.18;3.85;;;4.10;53.40;;;;;;4968093;28;20038;-82
2022/03/01 09:18:05;;;;;;;12.48;4.80;;;4.20;53.10;;;;;;4980219;28;20031;-80
2022/03/01 09:20:32;;;;;;;9.25;4.22;;;4.40;51.10;;;;;;4965904;28;20518;-79
2022/03/01 09:22:58;;;;;;;7.82;4.18;;;4.20;51.60;;;;;;5015148;28;20107;-82
2022/03/01 09:25:25;;;;;;;7.38;3.85;;;4.20;52.00;;;;;;5018314;28;20029;-82
2022/03/01 09:27:51;;;;;;;7.45;4.30;;;4.30;52.50;;;;;;5021854;28;20022;-81
2022/03/01 09:30:17;;;;;;;12.20;5.47;;;4.60;51.90;;;;;;5021404;28;20021;-82
2022/03/01 09:32:44;;;;;;;8.43;4.22;;;4.60;50.70;;;;;;5002997;28;20514;-82
2022/03/01 09:35:10;;;;;;;8.25;3.92;;;4.70;51.30;;;;;;5021642;28;20030;-80
2022/03/01 09:37:37;;;;;;;7.25;4.13;;;4.90;51.00;;;;;;5022492;28;20030;-81
2022/03/01 09:40:05;;;;;;;13.55;5.10;;;5.00;50.50;;;;;;5023190;28;20484;-81
2022/03/01 09:42:32;;;;;;;10.15;4.80;;;5.20;49.80;;;;;;5023288;28;20029;-80
2022/03/01 09:44:59;;;;;;;6.93;3.97;;;5.30;49.10;;;;;;5023045;28;20022;-79
2022/03/01 09:47:25;;;;;;;16.13;4.82;;;5.30;49.40;;;;;;5023846;28;20026;-82
2022/03/01 09:49:52;;;;;;;10.13;4.40;;;5.40;48.70;;;;;;5024084;28;20074;-82
2022/03/01 09:52:19;;;;;;;7.88;4.57;;;5.30;49.10;;;;;;5023222;28;20021;-82
2022/03/01 09:54:45;;;;;;;8.07;4.47;;;5.40;48.90;;;;;;5024544;28;20041;-81
2022/03/01 09:57:14;;;;;;;10.70;5.07;;;5.60;49.00;;;;;;5023779;28;20025;-81
2022/03/01 09:59:40;;;;;;;12.20;4.80;;;5.70;48.10;;;;;;5029332;28;20033;-80
2022/03/01 10:02:07;;;;;;;11.68;4.68;;;5.60;47.50;;;;;;5026973;28;20422;-81
2022/03/01 10:04:33;;;;;;;12.10;5.10;;;5.50;47.90;;;;;;5023871;28;20018;-81
2022/03/01 10:07:02;;;;;;;8.18;4.07;;;5.40;48.20;;;;;;5023650;28;20390;-83
2022/03/01 10:09:28;;;;;;;7.78;4.65;;;5.50;48.70;;;;;;5023653;28;20026;-82
2022/03/01 10:11:54;;;;;;;11.88;4.95;;;5.80;48.30;;;;;;5023147;28;20028;-79
2022/03/01 10:14:31;;;;;;;10.85;4.53;;;6.00;46.90;;;;;;5024519;28;20026;-80
2022/03/01 10:16:57;;;;;;;9.25;4.93;;;5.90;46.80;;;;;;5021806;28;20030;-83
2022/03/01 10:19:24;;;;;;;6.82;4.50;;;5.90;47.00;;;;;;5022507;28;20029;-81
2022/03/01 10:21:58;;;;;;;8.77;4.18;;;6.00;47.40;;;;;;5024019;28;20137;-81
2022/03/01 10:24:24;;;;;;;6.32;3.88;;;6.00;46.80;;;;;;5023653;28;20387;-81
2022/03/01 10:27:02;;;;;;;6.35;3.90;;;6.30;47.20;;;;;;5023266;28;20265;-80
2022/03/01 10:29:29;;;;;;;8.38;4.60;;;6.60;46.40;;;;;;5024406;28;20030;-84
2022/03/01 10:32:10;;;;;;;9.43;4.50;;;6.80;45.10;;;;;;5018741;28;20061;-85
2022/03/01 10:34:36;;;;;;;6.80;4.43;;;6.70;45.60;;;;;;5017677;28;20108;-85
2022/03/01 10:37:02;;;;;;;9.05;4.25;;;6.90;45.40;;;;;;5018514;28;20041;-85
2022/03/01 10:39:30;;;;;;;8.55;5.13;;;7.20;45.00;;;;;;5019600;28;20026;-86
2022/03/01 10:41:56;;;;;;;8.75;4.63;;;7.20;43.80;;;;;;5020518;28;20070;-86
2022/03/01 10:44:28;;;;;;;7.68;4.68;;;7.20;43.80;;;;;;5019781;28;20026;-85
2022/03/01 10:46:59;;;;;;;9.13;4.65;;;7.30;43.00;;;;;;5021498;28;20029;-84
2022/03/01 10:49:27;;;;;;;11.90;5.13;;;6.90;42.50;;;;;;5031216;28;20109;-84
2022/03/01 10:52:04;;;;;;;8.23;4.68;;;6.80;43.80;;;;;;5031864;28;20037;-84
2022/03/01 10:54:36;;;;;;;7.47;4.70;;;7.10;43.90;;;;;;5031500;28;20030;-84
2022/03/01 10:57:07;;;;;;;9.35;4.70;;;7.30;43.50;;;;;;5030437;28;20018;-85
2022/03/01 10:59:36;;;;;;;8.50;5.30;;;7.30;43.20;;;;;;5024043;28;20030;-85
2022/03/01 11:02:03;;;;;;;8.13;4.68;;;7.20;43.30;;;;;;5022657;28;20026;-85
2022/03/01 11:04:29;;;;;;;17.60;4.80;;;7.20;43.10;;;;;;5020125;28;20034;-85
2022/03/01 11:07:00;;;;;;;7.22;4.40;;;7.20;42.90;;;;;;5020243;28;20129;-85
2022/03/01 11:09:28;;;;;;;6.80;4.00;;;7.20;42.20;;;;;;5020320;28;20041;-85
2022/03/01 11:11:56;;;;;;;6.47;4.07;;;7.10;41.80;;;;;;5020364;28;20038;-86
2022/03/01 11:15:00;;;;;;;5.95;3.90;;;7.20;41.90;;;;;;5021942;28;20105;-86
2022/03/01 11:18:17;;;;;;;6.57;4.10;;;7.30;41.90;;;;;;5017856;28;20141;-85
2022/03/01 11:20:46;;;;;;;6.20;3.70;;;7.50;41.90;;;;;;4999312;28;20068;-83
2022/03/01 11:23:14;;;;;;;6.38;3.88;;;7.60;40.90;;;;;;5035661;28;20041;-84
2022/03/01 11:25:47;;;;;;;7.20;3.60;;;7.50;39.00;;;;;;5025578;28;20540;-84
2022/03/01 11:28:14;;;;;;;4.57;3.38;;;7.30;38.70;;;;;;5020425;28;20022;-85
2022/03/01 11:30:47;;;;;;;6.32;3.53;;;7.30;39.70;;;;;;5021421;28;20045;-85
2022/03/01 11:33:23;;;;;;;;;;;7.30;39.40;;;;;;5019926;28;20025;-85
2022/03/01 11:35:55;;;;;;;4.50;3.03;;;7.20;39.70;;;;;;5020072;28;20399;-87
2022/03/01 11:38:29;;;;;;;7.70;3.78;;;7.30;40.20;;;;;;5021736;28;20126;-85
2022/03/01 11:41:11;;;;;;;4.72;3.50;;;7.50;39.10;;;;;;5020876;28;20030;-84
2022/03/01 11:43:39;;;;;;;5.28;3.58;;;7.60;39.10;;;;;;5004638;28;20410;-84
2022/03/01 11:46:15;;;;;;;7.05;3.65;;;7.60;38.00;;;;;;5020224;28;20095;-83
2022/03/01 11:48:55;;;;;;;4.32;3.17;;;7.50;38.30;;;;;;5020768;28;20053;-84
2022/03/01 11:51:39;;;;;;;6.50;3.33;;;7.40;38.00;;;;;;5021296;28;20092;-84
2022/03/01 11:54:11;;;;;;;5.68;3.53;;;7.50;38.60;;;;;;5022389;28;20077;-84
2022/03/01 11:56:38;;;;;;;8.27;3.35;;;7.70;38.70;;;;;;4993972;28;20039;-83
2022/03/01 11:59:07;;;;;;;5.57;3.85;;;7.80;37.80;;;;;;4984135;28;20027;-82
2022/03/01 12:01:33;;;;;;;6.20;3.50;;;7.60;38.30;;;;;;4984576;28;20030;-81
2022/03/01 12:04:02;;;;;;;3.70;3.22;;;7.70;38.50;;;;;;4989649;28;20030;-82
2022/03/01 12:06:33;;;;;;;4.93;2.85;;;7.60;37.50;;;;;;4990433;28;20027;-81
2022/03/01 12:09:03;;;;;;;5.28;2.95;;;7.60;37.70;;;;;;4985722;28;20507;-82
2022/03/01 12:11:41;;;;;;;5.65;2.83;;;7.70;37.00;;;;;;4984888;28;20121;-80
2022/03/01 12:14:09;;;;;;;5.93;3.03;;;7.80;36.50;;;;;;4980965;28;20082;-80
2022/03/01 12:16:38;;;;;;;5.45;3.45;;;7.80;36.00;;;;;;4982471;28;20102;-79
2022/03/01 12:19:07;;;;;;;4.22;2.95;;;7.90;35.70;;;;;;4981099;28;20027;-81
2022/03/01 12:21:33;;;;;;;4.70;3.05;;;7.90;35.70;;;;;;4979496;28;20034;-81
2022/03/01 12:23:59;;;;;;;4.78;2.90;;;8.00;36.10;;;;;;4994440;28;20129;-80
2022/03/01 12:26:27;;;;;;;3.80;2.50;;;8.20;36.00;;;;;;5005941;28;20029;-80
2022/03/01 12:28:59;;;;;;;6.53;3.33;;;8.30;34.40;;;;;;5020432;28;20084;-82
2022/03/01 12:31:29;;;;;;;;;;;8.40;34.90;;;;;;5018983;28;20045;-81
2022/03/01 12:33:56;;;;;;;5.70;3.08;;;8.30;34.20;;;;;;5016111;28;19909;-82
2022/03/01 12:36:28;;;;;;;5.95;3.00;;;8.30;34.70;;;;;;5015379;28;20045;-80
2022/03/01 12:38:59;;;;;;;5.00;3.28;;;8.50;35.00;;;;;;5020660;28;20025;-80
2022/03/01 12:41:26;;;;;;;3.72;2.60;;;8.70;34.50;;;;;;5018236;28;20026;-79
2022/03/01 12:43:56;;;;;;;5.63;3.35;;;8.60;34.70;;;;;;5020388;28;20033;-79
2022/03/01 12:46:23;;;;;;;3.10;2.50;;;8.70;35.00;;;;;;5021306;28;20045;-81
2022/03/01 12:48:49;;;;;;;4.05;2.60;;;8.80;34.90;;;;;;5019526;28;20041;-81